sensor_id;sensor_type;location;lat;lon;timestamp;pressure;altitude;pressure_sealevel;temperature;humidity
37878;BME280;23715;53.652;8.516;2023-04-07T00:04:53;101738.98;;;7.02;100.00
37878;BME280;23715;53.652;8.516;2023-04-07T00:09:55;101734.80;;;6.89;100.00
37878;BME280;23715;53.652;8.516;2023-04-07T00:14:55;101746.64;;;6.76;100.00
37878;BME280;23715;53.652;8.516;2023-04-07T00:19:55;101747.34;;;6.64;100.00
37878;BME280;23715;53.652;8.516;2023-04-07T00:24:56;101746.31;;;6.58;100.00
37878;BME280;23715;53.652;8.516;2023-04-07T00:29:56;101737.73;;;6.60;100.00
37878;BME280;23715;53.652;8.516;2023-04-07T00:34:56;101742.84;;;6.64;100.00
37878;BME280;23715;53.652;8.516;2023-04-07T00:39:56;101744.47;;;6.67;100.00
37878;BME280;23715;53.652;8.516;2023-04-07T00:44:56;101752.78;;;6.54;100.00
37878;BME280;23715;53.652;8.516;2023-04-07T00:49:57;101755.39;;;6.47;100.00
37878;BME280;23715;53.652;8.516;2023-04-07T00:54:58;101756.95;;;6.26;100.00
37878;BME280;23715;53.652;8.516;2023-04-07T00:59:58;101751.95;;;6.11;100.00
37878;BME280;23715;53.652;8.516;2023-04-07T01:05:05;101758.44;;;6.14;100.00
37878;BME280;23715;53.652;8.516;2023-04-07T01:10:04;101756.88;;;6.19;100.00
37878;BME280;23715;53.652;8.516;2023-04-07T01:15:11;101755.70;;;6.16;100.00
37878;BME280;23715;53.652;8.516;2023-04-07T01:20:18;101759.22;;;6.34;100.00
37878;BME280;23715;53.652;8.516;2023-04-07T01:25:34;101753.54;;;6.31;100.00
37878;BME280;23715;53.652;8.516;2023-04-07T01:30:37;101754.80;;;6.41;100.00
37878;BME280;23715;53.652;8.516;2023-04-07T01:35:38;101757.21;;;6.37;100.00
37878;BME280;23715;53.652;8.516;2023-04-07T01:40:40;101757.40;;;6.34;100.00
37878;BME280;23715;53.652;8.516;2023-04-07T01:45:41;101759.23;;;6.50;100.00
37878;BME280;23715;53.652;8.516;2023-04-07T01:50:43;101761.08;;;6.32;100.00
37878;BME280;23715;53.652;8.516;2023-04-07T01:55:44;101762.30;;;6.26;100.00
37878;BME280;23715;53.652;8.516;2023-04-07T02:00:45;101760.28;;;5.96;100.00
37878;BME280;23715;53.652;8.516;2023-04-07T02:05:48;101762.47;;;5.88;100.00
37878;BME280;23715;53.652;8.516;2023-04-07T02:10:50;101761.02;;;5.90;100.00
37878;BME280;23715;53.652;8.516;2023-04-07T02:15:53;101762.77;;;5.99;100.00
37878;BME280;23715;53.652;8.516;2023-04-07T02:20:55;101760.73;;;6.04;100.00
37878;BME280;23715;53.652;8.516;2023-04-07T02:25:57;101760.10;;;5.99;100.00
37878;BME280;23715;53.652;8.516;2023-04-07T02:30:57;101769.52;;;5.89;100.00
37878;BME280;23715;53.652;8.516;2023-04-07T02:35:57;101769.27;;;5.76;100.00
37878;BME280;23715;53.652;8.516;2023-04-07T02:41:00;101762.75;;;5.82;100.00
37878;BME280;23715;53.652;8.516;2023-04-07T02:46:01;101764.88;;;5.84;100.00
37878;BME280;23715;53.652;8.516;2023-04-07T02:51:01;101772.05;;;6.10;100.00
37878;BME280;23715;53.652;8.516;2023-04-07T02:56:02;101765.59;;;6.14;100.00
37878;BME280;23715;53.652;8.516;2023-04-07T03:01:02;101767.23;;;6.16;100.00
37878;BME280;23715;53.652;8.516;2023-04-07T03:06:05;101770.53;;;6.13;100.00
37878;BME280;23715;53.652;8.516;2023-04-07T03:11:07;101768.98;;;6.26;100.00
37878;BME280;23715;53.652;8.516;2023-04-07T03:16:07;101768.49;;;6.27;100.00
37878;BME280;23715;53.652;8.516;2023-04-07T03:21:09;101763.94;;;6.20;100.00
37878;BME280;23715;53.652;8.516;2023-04-07T03:26:09;101765.89;;;6.25;100.00
37878;BME280;23715;53.652;8.516;2023-04-07T03:31:10;101771.16;;;6.18;100.00
37878;BME280;23715;53.652;8.516;2023-04-07T03:36:09;101776.19;;;5.89;100.00
37878;BME280;23715;53.652;8.516;2023-04-07T03:41:11;101779.57;;;5.75;100.00
37878;BME280;23715;53.652;8.516;2023-04-07T03:46:12;101777.37;;;5.66;100.00
37878;BME280;23715;53.652;8.516;2023-04-07T03:51:14;101770.91;;;5.61;100.00
37878;BME280;23715;53.652;8.516;2023-04-07T03:56:16;101781.35;;;5.48;100.00
37878;BME280;23715;53.652;8.516;2023-04-07T04:01:19;101782.34;;;5.46;100.00
37878;BME280;23715;53.652;8.516;2023-04-07T04:06:21;101785.97;;;5.54;100.00
37878;BME280;23715;53.652;8.516;2023-04-07T04:11:23;101788.06;;;5.30;100.00
37878;BME280;23715;53.652;8.516;2023-04-07T04:16:25;101794.23;;;5.02;100.00
37878;BME280;23715;53.652;8.516;2023-04-07T04:21:27;101806.69;;;4.64;100.00
37878;BME280;23715;53.652;8.516;2023-04-07T05:29:21;101869.30;;;4.23;100.00
37878;BME280;23715;53.652;8.516;2023-04-07T05:34:24;101871.70;;;4.49;100.00
37878;BME280;23715;53.652;8.516;2023-04-07T05:39:28;101871.97;;;4.93;100.00
37878;BME280;23715;53.652;8.516;2023-04-07T05:44:29;101871.90;;;5.24;100.00
37878;BME280;23715;53.652;8.516;2023-04-07T05:49:32;101866.70;;;5.21;100.00
37878;BME280;23715;53.652;8.516;2023-04-07T05:54:35;101879.53;;;5.32;100.00
37878;BME280;23715;53.652;8.516;2023-04-07T05:59:39;101888.93;;;5.49;100.00
37878;BME280;23715;53.652;8.516;2023-04-07T06:04:40;101888.93;;;5.49;100.00
37878;BME280;23715;53.652;8.516;2023-04-07T06:09:45;101899.89;;;5.71;100.00
37878;BME280;23715;53.652;8.516;2023-04-07T06:14:52;101899.64;;;5.94;100.00
37878;BME280;23715;53.652;8.516;2023-04-07T06:19:53;101900.38;;;6.06;100.00
37878;BME280;23715;53.652;8.516;2023-04-07T06:24:58;101903.70;;;6.29;100.00
37878;BME280;23715;53.652;8.516;2023-04-07T06:30:02;101905.76;;;6.41;100.00
37878;BME280;23715;53.652;8.516;2023-04-07T06:35:00;101906.77;;;6.39;100.00
37878;BME280;23715;53.652;8.516;2023-04-07T06:40:02;101912.42;;;6.50;100.00
37878;BME280;23715;53.652;8.516;2023-04-07T06:45:04;101922.64;;;6.68;100.00
37878;BME280;23715;53.652;8.516;2023-04-07T06:50:06;101927.17;;;6.83;100.00
37878;BME280;23715;53.652;8.516;2023-04-07T06:55:07;101932.70;;;7.14;100.00
37878;BME280;23715;53.652;8.516;2023-04-07T07:00:08;101938.82;;;7.40;100.00
37878;BME280;23715;53.652;8.516;2023-04-07T07:05:12;101937.77;;;7.43;100.00
37878;BME280;23715;53.652;8.516;2023-04-07T07:10:17;101942.25;;;7.51;100.00
37878;BME280;23715;53.652;8.516;2023-04-07T07:15:21;101947.77;;;7.48;100.00
37878;BME280;23715;53.652;8.516;2023-04-07T07:20:20;101953.11;;;7.64;100.00
37878;BME280;23715;53.652;8.516;2023-04-07T07:25:23;101952.04;;;7.75;100.00
37878;BME280;23715;53.652;8.516;2023-04-07T07:30:26;101959.89;;;7.94;100.00
37878;BME280;23715;53.652;8.516;2023-04-07T07:35:27;101956.94;;;8.15;100.00
37878;BME280;23715;53.652;8.516;2023-04-07T07:40:28;101962.25;;;8.31;100.00
37878;BME280;23715;53.652;8.516;2023-04-07T07:45:32;101974.45;;;8.52;100.00
37878;BME280;23715;53.652;8.516;2023-04-07T07:50:32;101970.45;;;8.59;100.00
37878;BME280;23715;53.652;8.516;2023-04-07T07:55:32;101974.11;;;8.80;100.00
37878;BME280;23715;53.652;8.516;2023-04-07T08:00:32;101983.94;;;9.10;100.00
37878;BME280;23715;53.652;8.516;2023-04-07T08:05:32;101982.33;;;9.43;100.00
37878;BME280;23715;53.652;8.516;2023-04-07T08:10:33;101985.38;;;9.44;100.00
37878;BME280;23715;53.652;8.516;2023-04-07T08:15:43;101989.41;;;9.44;100.00
37878;BME280;23715;53.652;8.516;2023-04-07T08:20:44;101996.77;;;9.76;100.00
37878;BME280;23715;53.652;8.516;2023-04-07T08:25:46;101985.16;;;10.18;100.00
37878;BME280;23715;53.652;8.516;2023-04-07T08:30:47;101988.00;;;10.36;100.00
37878;BME280;23715;53.652;8.516;2023-04-07T08:35:47;101986.81;;;10.60;100.00
37878;BME280;23715;53.652;8.516;2023-04-07T08:40:51;101989.70;;;10.77;100.00
37878;BME280;23715;53.652;8.516;2023-04-07T08:45:51;101992.05;;;10.89;100.00
37878;BME280;23715;53.652;8.516;2023-04-07T08:50:55;102004.31;;;11.06;100.00
37878;BME280;23715;53.652;8.516;2023-04-07T08:55:56;102008.70;;;11.27;100.00
37878;BME280;23715;53.652;8.516;2023-04-07T09:00:58;102007.23;;;11.41;100.00
37878;BME280;23715;53.652;8.516;2023-04-07T09:06:04;102007.02;;;11.44;100.00
37878;BME280;23715;53.652;8.516;2023-04-07T09:11:07;102012.86;;;11.57;100.00
37878;BME280;23715;53.652;8.516;2023-04-07T09:16:07;102007.90;;;11.76;100.00
37878;BME280;23715;53.652;8.516;2023-04-07T09:21:09;101997.27;;;11.99;100.00
37878;BME280;23715;53.652;8.516;2023-04-07T09:26:22;102006.55;;;11.76;100.00
37878;BME280;23715;53.652;8.516;2023-04-07T09:32:09;102009.61;;;11.90;97.33
37878;BME280;23715;53.652;8.516;2023-04-07T09:36:28;102004.47;;;12.11;95.97
37878;BME280;23715;53.652;8.516;2023-04-07T09:41:31;102011.99;;;12.19;94.73
37878;BME280;23715;53.652;8.516;2023-04-07T09:46:33;102013.79;;;12.37;95.74
37878;BME280;23715;53.652;8.516;2023-04-07T09:51:34;102020.34;;;12.45;94.94
37878;BME280;23715;53.652;8.516;2023-04-07T09:56:39;102016.02;;;12.37;90.34
37878;BME280;23715;53.652;8.516;2023-04-07T10:01:41;102011.61;;;12.42;90.69
37878;BME280;23715;53.652;8.516;2023-04-07T10:06:43;102009.98;;;12.63;93.59
37878;BME280;23715;53.652;8.516;2023-04-07T10:11:44;102009.92;;;12.82;89.85
37878;BME280;23715;53.652;8.516;2023-04-07T10:17:01;102009.22;;;12.91;92.00
37878;BME280;23715;53.652;8.516;2023-04-07T10:21:52;102003.50;;;13.24;97.89
37878;BME280;23715;53.652;8.516;2023-04-07T10:26:57;102016.89;;;13.20;88.64
37878;BME280;23715;53.652;8.516;2023-04-07T10:31:59;102024.37;;;13.16;88.35
37878;BME280;23715;53.652;8.516;2023-04-07T10:37:14;102031.00;;;13.12;84.38
37878;BME280;23715;53.652;8.516;2023-04-07T10:58:15;102036.60;;;13.50;82.53
37878;BME280;23715;53.652;8.516;2023-04-07T11:03:17;102035.76;;;13.66;85.05
37878;BME280;23715;53.652;8.516;2023-04-07T11:13:50;102026.61;;;14.07;83.01
37878;BME280;23715;53.652;8.516;2023-04-07T11:18:47;102036.08;;;14.07;81.18
37878;BME280;23715;53.652;8.516;2023-04-07T11:23:50;102034.69;;;14.24;82.97
37878;BME280;23715;53.652;8.516;2023-04-07T11:28:53;102040.61;;;14.23;79.84
37878;BME280;23715;53.652;8.516;2023-04-07T11:34:01;102039.86;;;14.27;80.33
37878;BME280;23715;53.652;8.516;2023-04-07T11:39:16;102053.63;;;14.24;79.55
37878;BME280;23715;53.652;8.516;2023-04-07T11:44:06;102043.44;;;14.22;80.30
37878;BME280;23715;53.652;8.516;2023-04-07T11:49:13;102036.73;;;14.43;84.39
37878;BME280;23715;53.652;8.516;2023-04-07T11:54:14;102044.77;;;14.28;79.47
37878;BME280;23715;53.652;8.516;2023-04-07T11:59:21;102047.48;;;14.28;76.90
37878;BME280;23715;53.652;8.516;2023-04-07T12:04:21;102049.53;;;14.41;82.31
37878;BME280;23715;53.652;8.516;2023-04-07T12:09:31;102043.66;;;14.24;78.85
37878;BME280;23715;53.652;8.516;2023-04-07T12:14:35;102046.34;;;14.36;82.62
37878;BME280;23715;53.652;8.516;2023-04-07T12:19:38;102051.81;;;14.62;80.47
37878;BME280;23715;53.652;8.516;2023-04-07T12:24:39;102054.66;;;14.67;74.62
37878;BME280;23715;53.652;8.516;2023-04-07T12:29:45;102058.44;;;14.70;73.71
37878;BME280;23715;53.652;8.516;2023-04-07T12:34:46;102051.45;;;14.94;78.42
37878;BME280;23715;53.652;8.516;2023-04-07T12:39:50;102052.80;;;15.15;74.71
37878;BME280;23715;53.652;8.516;2023-04-07T12:44:54;102057.41;;;15.09;74.68
37878;BME280;23715;53.652;8.516;2023-04-07T12:49:59;102060.05;;;15.20;73.95
37878;BME280;23715;53.652;8.516;2023-04-07T12:55:00;102063.73;;;15.19;73.07
37878;BME280;23715;53.652;8.516;2023-04-07T13:00:00;102063.83;;;15.23;71.12
37878;BME280;23715;53.652;8.516;2023-04-07T13:05:00;102068.12;;;15.10;69.28
37878;BME280;23715;53.652;8.516;2023-04-07T13:10:01;102064.52;;;15.10;78.82
37878;BME280;23715;53.652;8.516;2023-04-07T13:15:05;102071.06;;;14.86;77.86
37878;BME280;23715;53.652;8.516;2023-04-07T13:20:06;102067.83;;;14.92;82.42
37878;BME280;23715;53.652;8.516;2023-04-07T13:25:07;102069.25;;;15.23;79.22
37878;BME280;23715;53.652;8.516;2023-04-07T13:30:07;102066.64;;;15.06;75.63
37878;BME280;23715;53.652;8.516;2023-04-07T13:35:11;102067.42;;;15.02;73.71
37878;BME280;23715;53.652;8.516;2023-04-07T13:40:12;102068.34;;;15.13;74.18
37878;BME280;23715;53.652;8.516;2023-04-07T13:45:14;102076.83;;;14.87;74.26
37878;BME280;23715;53.652;8.516;2023-04-07T13:50:16;102069.59;;;15.09;73.71
37878;BME280;23715;53.652;8.516;2023-04-07T13:55:19;102066.92;;;15.24;70.70
37878;BME280;23715;53.652;8.516;2023-04-07T14:00:18;102074.20;;;15.23;72.05
37878;BME280;23715;53.652;8.516;2023-04-07T14:05:19;102074.16;;;15.29;71.79
37878;BME280;23715;53.652;8.516;2023-04-07T14:10:21;102082.83;;;15.59;70.91
37878;BME280;23715;53.652;8.516;2023-04-07T14:15:21;102068.02;;;15.27;73.69
37878;BME280;23715;53.652;8.516;2023-04-07T14:20:23;102069.59;;;15.09;74.75
37878;BME280;23715;53.652;8.516;2023-04-07T14:25:26;102073.34;;;14.96;76.83
37878;BME280;23715;53.652;8.516;2023-04-07T14:30:25;102075.47;;;14.87;76.46
37878;BME280;23715;53.652;8.516;2023-04-07T14:35:27;102070.45;;;14.82;76.12
37878;BME280;23715;53.652;8.516;2023-04-07T14:40:27;102073.46;;;14.95;76.49
37878;BME280;23715;53.652;8.516;2023-04-07T14:45:30;102080.23;;;14.95;77.42
37878;BME280;23715;53.652;8.516;2023-04-07T14:50:37;102072.17;;;15.31;82.52
37878;BME280;23715;53.652;8.516;2023-04-07T14:55:41;102078.92;;;15.16;70.72
37878;BME280;23715;53.652;8.516;2023-04-07T15:00:43;102087.84;;;15.07;72.91
37878;BME280;23715;53.652;8.516;2023-04-07T15:05:43;102097.09;;;14.98;71.25
37878;BME280;23715;53.652;8.516;2023-04-07T15:10:43;102101.05;;;14.94;72.48
37878;BME280;23715;53.652;8.516;2023-04-07T15:15:44;102104.89;;;14.92;66.19
37878;BME280;23715;53.652;8.516;2023-04-07T15:20:44;102109.75;;;14.77;69.48
37878;BME280;23715;53.652;8.516;2023-04-07T15:25:46;102112.58;;;14.75;65.87
37878;BME280;23715;53.652;8.516;2023-04-07T15:30:51;102120.38;;;14.52;70.23
37878;BME280;23715;53.652;8.516;2023-04-07T15:35:51;102120.73;;;14.47;66.95
37878;BME280;23715;53.652;8.516;2023-04-07T15:40:52;102129.27;;;14.25;60.21
37878;BME280;23715;53.652;8.516;2023-04-07T15:45:57;102125.19;;;14.48;62.56
37878;BME280;23715;53.652;8.516;2023-04-07T15:50:56;102131.14;;;14.08;59.04
37878;BME280;23715;53.652;8.516;2023-04-07T15:55:56;102136.78;;;13.94;63.77
37878;BME280;23715;53.652;8.516;2023-04-07T16:00:57;102144.16;;;13.92;62.25
37878;BME280;23715;53.652;8.516;2023-04-07T16:05:58;102144.66;;;13.97;64.48
37878;BME280;23715;53.652;8.516;2023-04-07T16:10:58;102142.68;;;14.33;62.36
37878;BME280;23715;53.652;8.516;2023-04-07T16:15:59;102146.12;;;14.35;65.00
37878;BME280;23715;53.652;8.516;2023-04-07T16:20:59;102153.00;;;13.94;66.10
37878;BME280;23715;53.652;8.516;2023-04-07T16:26:01;102160.03;;;13.91;64.52
37878;BME280;23715;53.652;8.516;2023-04-07T16:31:03;102174.27;;;13.35;67.14
37878;BME280;23715;53.652;8.516;2023-04-07T16:36:05;102161.94;;;13.55;71.66
37878;BME280;23715;53.652;8.516;2023-04-07T16:41:07;102180.03;;;13.30;70.18
37878;BME280;23715;53.652;8.516;2023-04-07T16:46:07;102177.70;;;13.37;70.11
37878;BME280;23715;53.652;8.516;2023-04-07T16:51:09;102179.07;;;13.18;65.91
37878;BME280;23715;53.652;8.516;2023-04-07T16:56:20;102184.86;;;12.95;68.52
37878;BME280;23715;53.652;8.516;2023-04-07T17:01:27;102194.66;;;12.91;75.03
37878;BME280;23715;53.652;8.516;2023-04-07T17:06:29;102204.66;;;12.77;76.46
37878;BME280;23715;53.652;8.516;2023-04-07T17:16:34;102205.07;;;12.65;84.15
37878;BME280;23715;53.652;8.516;2023-04-07T17:21:34;102212.80;;;12.52;90.08
37878;BME280;23715;53.652;8.516;2023-04-07T17:26:39;102223.66;;;12.44;90.71
37878;BME280;23715;53.652;8.516;2023-04-07T17:31:37;102229.73;;;12.22;96.94
37878;BME280;23715;53.652;8.516;2023-04-07T17:36:39;102235.39;;;12.12;100.00
37878;BME280;23715;53.652;8.516;2023-04-07T17:41:41;102249.75;;;12.00;100.00
37878;BME280;23715;53.652;8.516;2023-04-07T17:46:41;102257.14;;;11.43;100.00
37878;BME280;23715;53.652;8.516;2023-04-07T17:51:42;102266.59;;;11.36;100.00
37878;BME280;23715;53.652;8.516;2023-04-07T17:56:42;102274.01;;;11.05;100.00
37878;BME280;23715;53.652;8.516;2023-04-07T18:01:45;102273.59;;;11.19;100.00
37878;BME280;23715;53.652;8.516;2023-04-07T18:06:47;102283.44;;;10.98;100.00
37878;BME280;23715;53.652;8.516;2023-04-07T18:11:50;102295.20;;;10.90;100.00
37878;BME280;23715;53.652;8.516;2023-04-07T18:16:58;102299.92;;;10.50;100.00
37878;BME280;23715;53.652;8.516;2023-04-07T18:21:58;102305.98;;;10.54;100.00
37878;BME280;23715;53.652;8.516;2023-04-07T18:26:58;102310.78;;;10.56;100.00
37878;BME280;23715;53.652;8.516;2023-04-07T18:32:00;102320.09;;;10.50;100.00
37878;BME280;23715;53.652;8.516;2023-04-07T18:37:00;102336.14;;;10.14;100.00
37878;BME280;23715;53.652;8.516;2023-04-07T18:42:01;102345.36;;;9.80;100.00
37878;BME280;23715;53.652;8.516;2023-04-07T18:47:01;102353.05;;;9.79;100.00
37878;BME280;23715;53.652;8.516;2023-04-07T18:52:02;102368.84;;;9.53;100.00
37878;BME280;23715;53.652;8.516;2023-04-07T18:57:02;102370.64;;;9.30;100.00
37878;BME280;23715;53.652;8.516;2023-04-07T19:02:05;102379.58;;;8.97;100.00
37878;BME280;23715;53.652;8.516;2023-04-07T19:07:05;102385.98;;;9.19;100.00
37878;BME280;23715;53.652;8.516;2023-04-07T19:12:05;102391.77;;;9.36;100.00
37878;BME280;23715;53.652;8.516;2023-04-07T19:17:07;102401.72;;;9.34;100.00
37878;BME280;23715;53.652;8.516;2023-04-07T19:22:11;102403.06;;;9.34;100.00
37878;BME280;23715;53.652;8.516;2023-04-07T19:27:14;102407.05;;;9.18;100.00
37878;BME280;23715;53.652;8.516;2023-04-07T19:32:17;102407.59;;;9.09;100.00
37878;BME280;23715;53.652;8.516;2023-04-07T19:37:22;102414.80;;;8.91;100.00
37878;BME280;23715;53.652;8.516;2023-04-07T19:42:26;102415.99;;;8.94;100.00
37878;BME280;23715;53.652;8.516;2023-04-07T19:47:27;102421.55;;;8.82;100.00
37878;BME280;23715;53.652;8.516;2023-04-07T19:52:36;102421.73;;;8.95;100.00
37878;BME280;23715;53.652;8.516;2023-04-07T19:57:36;102433.36;;;8.78;100.00
37878;BME280;23715;53.652;8.516;2023-04-07T20:02:38;102435.23;;;8.93;100.00
37878;BME280;23715;53.652;8.516;2023-04-07T20:07:39;102433.09;;;9.00;100.00
37878;BME280;23715;53.652;8.516;2023-04-07T20:12:45;102436.56;;;9.02;100.00
37878;BME280;23715;53.652;8.516;2023-04-07T20:17:46;102438.03;;;9.16;100.00
37878;BME280;23715;53.652;8.516;2023-04-07T20:22:53;102454.17;;;9.24;100.00
37878;BME280;23715;53.652;8.516;2023-04-07T20:27:59;102454.92;;;9.18;100.00
37878;BME280;23715;53.652;8.516;2023-04-07T20:33:00;102459.72;;;9.45;100.00
37878;BME280;23715;53.652;8.516;2023-04-07T20:38:05;102455.85;;;9.42;100.00
37878;BME280;23715;53.652;8.516;2023-04-07T20:43:07;102455.44;;;9.25;100.00
37878;BME280;23715;53.652;8.516;2023-04-07T20:48:08;102467.00;;;9.18;100.00
37878;BME280;23715;53.652;8.516;2023-04-07T20:53:11;102474.98;;;9.11;100.00
37878;BME280;23715;53.652;8.516;2023-04-07T20:58:13;102487.35;;;9.23;100.00
37878;BME280;23715;53.652;8.516;2023-04-07T21:03:17;102479.72;;;9.06;100.00
37878;BME280;23715;53.652;8.516;2023-04-07T21:08:19;102478.86;;;8.97;100.00
37878;BME280;23715;53.652;8.516;2023-04-07T21:13:21;102486.54;;;8.96;100.00
37878;BME280;23715;53.652;8.516;2023-04-07T21:18:26;102484.37;;;9.03;100.00
37878;BME280;23715;53.652;8.516;2023-04-07T21:23:27;102492.46;;;8.94;100.00
37878;BME280;23715;53.652;8.516;2023-04-07T21:28:33;102490.89;;;8.81;100.00
37878;BME280;23715;53.652;8.516;2023-04-07T21:33:31;102495.47;;;8.79;100.00
37878;BME280;23715;53.652;8.516;2023-04-07T21:38:31;102497.52;;;8.83;100.00
37878;BME280;23715;53.652;8.516;2023-04-07T21:48:34;102502.56;;;8.89;100.00
37878;BME280;23715;53.652;8.516;2023-04-07T21:53:34;102508.16;;;8.67;100.00
37878;BME280;23715;53.652;8.516;2023-04-07T21:58:38;102512.13;;;8.77;100.00
37878;BME280;23715;53.652;8.516;2023-04-07T22:03:41;102503.03;;;8.79;100.00
37878;BME280;23715;53.652;8.516;2023-04-07T22:08:44;102500.33;;;8.97;100.00
37878;BME280;23715;53.652;8.516;2023-04-07T22:13:50;102502.66;;;8.78;100.00
37878;BME280;23715;53.652;8.516;2023-04-07T22:18:53;102503.05;;;8.62;100.00
37878;BME280;23715;53.652;8.516;2023-04-07T22:23:49;102503.05;;;8.62;100.00
37878;BME280;23715;53.652;8.516;2023-04-07T22:28:50;102513.30;;;8.71;100.00
37878;BME280;23715;53.652;8.516;2023-04-07T22:33:49;102513.30;;;8.54;100.00
37878;BME280;23715;53.652;8.516;2023-04-07T22:38:49;102521.50;;;8.68;100.00
37878;BME280;23715;53.652;8.516;2023-04-07T22:43:51;102521.89;;;8.60;100.00
37878;BME280;23715;53.652;8.516;2023-04-07T22:48:52;102515.44;;;8.73;100.00
37878;BME280;23715;53.652;8.516;2023-04-07T22:53:52;102506.59;;;8.89;100.00
37878;BME280;23715;53.652;8.516;2023-04-07T22:58:54;102522.86;;;8.59;100.00
37878;BME280;23715;53.652;8.516;2023-04-07T23:03:58;102530.65;;;8.82;100.00
37878;BME280;23715;53.652;8.516;2023-04-07T23:08:59;102527.65;;;8.70;100.00
37878;BME280;23715;53.652;8.516;2023-04-07T23:14:00;102531.84;;;8.67;100.00
37878;BME280;23715;53.652;8.516;2023-04-07T23:19:07;102536.55;;;8.45;100.00
37878;BME280;23715;53.652;8.516;2023-04-07T23:24:16;102539.71;;;8.53;100.00
37878;BME280;23715;53.652;8.516;2023-04-07T23:29:35;102534.87;;;8.42;100.00
37878;BME280;23715;53.652;8.516;2023-04-07T23:34:23;102530.00;;;8.42;100.00
37878;BME280;23715;53.652;8.516;2023-04-07T23:39:23;102530.00;;;8.42;100.00
37878;BME280;23715;53.652;8.516;2023-04-07T23:44:23;102536.86;;;8.47;100.00
37878;BME280;23715;53.652;8.516;2023-04-07T23:49:23;102547.66;;;8.46;100.00
37878;BME280;23715;53.652;8.516;2023-04-07T23:54:27;102546.28;;;8.73;100.00
37878;BME280;23715;53.652;8.516;2023-04-07T23:59:29;102540.91;;;8.56;100.00
